Time;durP1;ratioP1;P1;durP2;ratioP2;P2;SDS_P1;SDS_P2;PMS_P1;PMS_P2;Temp;Humidity;BMP_temperature;BMP_pressure;BME280_temperature;BME280_humidity;BME280_pressure;Samples;Min_cycle;Max_cycle;Signal;HPM_P1;HPM_P2
2022/08/27 00:00:38;;;;;;;4.53;2.38;;;;;;;15.81;100.00;101776.47;5049599;28;20492;-72
2022/08/27 00:03:03;;;;;;;8.65;2.75;;;;;;;15.80;100.00;101780.00;5049766;28;20024;-72
2022/08/27 00:05:29;;;;;;;9.05;4.78;;;;;;;15.76;100.00;101781.72;5046939;28;20032;-73
2022/08/27 00:07:54;;;;;;;13.05;4.20;;;;;;;15.74;100.00;101777.25;5038643;28;20045;-72
2022/08/27 00:10:23;;;;;;;8.80;3.92;;;;;;;15.70;100.00;101772.81;5041315;28;20017;-73
2022/08/27 00:12:49;;;;;;;8.40;4.05;;;;;;;15.65;100.00;101775.38;5037128;28;20029;-73
2022/08/27 00:15:16;;;;;;;5.75;3.63;;;;;;;15.58;100.00;101776.19;5036104;28;20033;-72
2022/08/27 00:17:44;;;;;;;7.95;3.13;;;;;;;15.56;100.00;101769.97;5049618;28;20036;-72
2022/08/27 00:20:11;;;;;;;6.90;2.70;;;;;;;15.55;100.00;101768.22;5036212;28;20025;-72
2022/08/27 00:22:36;;;;;;;7.82;2.97;;;;;;;15.54;100.00;101775.28;5044460;28;20515;-72
2022/08/27 00:25:02;;;;;;;8.65;2.67;;;;;;;15.50;100.00;101761.09;5059468;28;20051;-72
2022/08/27 00:27:27;;;;;;;7.25;2.97;;;;;;;15.51;100.00;101761.97;5042923;28;20029;-73
2022/08/27 00:29:53;;;;;;;5.90;2.70;;;;;;;15.47;100.00;101761.03;5036373;28;20491;-71
2022/08/27 00:32:18;;;;;;;8.10;3.13;;;;;;;15.42;100.00;101760.09;5044771;28;20043;-71
2022/08/27 00:34:44;;;;;;;6.68;3.35;;;;;;;15.38;100.00;101766.25;5051955;28;20025;-72
2022/08/27 00:37:09;;;;;;;8.63;4.00;;;;;;;15.35;100.00;101758.25;5050148;28;20048;-71
2022/08/27 00:39:35;;;;;;;8.68;4.70;;;;;;;15.27;100.00;101759.94;5049373;28;20033;-72
2022/08/27 00:42:02;;;;;;;6.18;4.28;;;;;;;15.21;100.00;101762.53;5049850;28;20386;-72
2022/08/27 00:44:28;;;;;;;8.77;3.80;;;;;;;15.19;100.00;101762.47;5037231;28;20025;-72
2022/08/27 00:46:59;;;;;;;6.93;3.88;;;;;;;15.15;100.00;101761.56;5046093;28;20029;-72
2022/08/27 00:49:42;;;;;;;5.95;3.97;;;;;;;15.22;100.00;101758.97;5053032;28;20158;-72
2022/08/27 00:52:23;;;;;;;8.40;4.53;;;;;;;15.15;100.00;101764.22;5045152;28;20040;-72
2022/08/27 00:54:52;;;;;;;6.95;3.70;;;;;;;15.12;100.00;101764.16;5038120;28;20279;-72
2022/08/27 00:57:18;;;;;;;6.88;3.22;;;;;;;15.11;100.00;101764.16;5050558;28;20163;-72
2022/08/27 00:59:44;;;;;;;4.80;2.85;;;;;;;15.08;100.00;101762.34;5045431;28;20508;-72
2022/08/27 01:02:18;;;;;;;6.57;3.03;;;;;;;15.06;100.00;101760.56;5044736;28;20052;-72
2022/08/27 01:04:49;;;;;;;6.25;3.00;;;;;;;15.07;100.00;101765.91;5043544;28;20035;-72
2022/08/27 01:07:16;;;;;;;8.35;2.88;;;;;;;15.05;100.00;101767.63;5039757;28;20017;-72
2022/08/27 01:09:44;;;;;;;7.43;2.92;;;;;;;15.04;100.00;101764.97;5037150;28;20021;-72
2022/08/27 01:12:10;;;;;;;6.80;2.88;;;;;;;15.00;100.00;101769.31;5036253;28;20037;-71
2022/08/27 01:14:36;;;;;;;6.35;3.25;;;;;;;14.97;100.00;101767.50;5048696;28;20029;-71
2022/08/27 01:17:05;;;;;;;5.75;2.88;;;;;;;14.94;100.00;101769.25;5044002;28;20029;-71
2022/08/27 01:19:38;;;;;;;10.43;3.03;;;;;;;14.89;100.00;101769.16;5043338;28;20053;-71
2022/08/27 01:22:17;;;;;;;5.55;2.67;;;;;;;14.83;100.00;101766.47;5045303;28;20048;-71
2022/08/27 01:24:45;;;;;;;8.02;2.45;;;;;;;14.81;100.00;101769.09;5046044;28;20506;-71
2022/08/27 01:27:16;;;;;;;8.57;2.38;;;;;;;14.81;100.00;101766.44;5040910;28;20310;-72
2022/08/27 01:29:43;;;;;;;8.15;2.63;;;;;;;14.80;100.00;101762.00;5041823;28;20104;-72
2022/08/27 01:32:15;;;;;;;6.82;2.55;;;;;;;14.82;100.00;101772.63;5050898;28;20039;-72
2022/08/27 01:34:41;;;;;;;9.55;2.65;;;;;;;14.79;100.00;101765.50;5042948;28;20031;-72
2022/08/27 01:37:06;;;;;;;5.88;2.30;;;;;;;14.78;100.00;101768.16;5037530;28;20472;-72
2022/08/27 01:39:33;;;;;;;3.70;2.38;;;;;;;14.78;100.00;101760.19;5039284;28;20118;-72
2022/08/27 01:42:14;;;;;;;9.50;2.78;;;;;;;14.75;100.00;101758.38;5046158;28;20103;-71
2022/08/27 01:44:46;;;;;;;8.57;2.50;;;;;;;14.74;100.00;101755.72;5043926;28;20029;-72
2022/08/27 01:47:12;;;;;;;14.13;3.17;;;;;;;14.78;100.00;101757.53;5038370;28;20037;-72
2022/08/27 01:49:37;;;;;;;6.82;2.33;;;;;;;14.76;100.00;101759.28;5046360;28;20032;-73
2022/08/27 01:52:04;;;;;;;7.80;2.40;;;;;;;14.76;100.00;101762.81;5044778;28;20036;-73
2022/08/27 01:54:31;;;;;;;9.20;2.90;;;;;;;14.77;100.00;101751.38;5035183;28;20029;-73
2022/08/27 01:56:57;;;;;;;4.03;2.70;;;;;;;14.77;100.00;101751.38;5045878;28;20368;-71
2022/08/27 01:59:23;;;;;;;6.05;2.83;;;;;;;14.77;100.00;101759.31;5042542;28;20021;-72
2022/08/27 02:01:49;;;;;;;7.20;2.22;;;;;;;14.75;100.00;101753.09;5044543;28;20086;-72
2022/08/27 02:04:14;;;;;;;7.32;2.83;;;;;;;14.74;100.00;101751.31;5044581;28;20021;-73
2022/08/27 02:06:39;;;;;;;10.20;2.47;;;;;;;14.71;100.00;101753.03;5040640;28;20024;-72
2022/08/27 02:09:05;;;;;;;4.00;2.63;;;;;;;14.72;100.00;101753.06;5045464;28;20049;-72
2022/08/27 02:11:30;;;;;;;6.28;2.45;;;;;;;14.73;100.00;101749.53;5046000;28;20033;-72
2022/08/27 02:13:55;;;;;;;11.60;3.13;;;;;;;14.74;100.00;101751.31;5043514;28;20033;-72
2022/08/27 02:16:20;;;;;;;6.28;2.33;;;;;;;14.73;100.00;101753.94;5040840;28;20029;-72
2022/08/27 02:18:46;;;;;;;8.18;2.00;;;;;;;14.70;100.00;101748.59;5036990;28;20084;-72
2022/08/27 02:21:14;;;;;;;6.78;2.50;;;;;;;14.72;100.00;101747.75;5047686;28;20112;-72
2022/08/27 02:23:40;;;;;;;12.15;2.17;;;;;;;14.70;100.00;101744.19;5045849;28;20028;-72
2022/08/27 02:26:06;;;;;;;6.47;2.70;;;;;;;14.67;100.00;101744.16;5057636;28;20052;-73
2022/08/27 02:28:33;;;;;;;5.90;2.08;;;;;;;14.65;100.00;101740.59;5042989;28;20036;-71
2022/08/27 02:30:59;;;;;;;8.85;2.70;;;;;;;14.63;100.00;101742.31;5040986;28;20033;-72
2022/08/27 02:33:25;;;;;;;18.05;3.30;;;;;;;14.62;100.00;101735.19;5045433;28;20048;-73
2022/08/27 02:35:50;;;;;;;7.95;2.47;;;;;;;14.59;100.00;101746.66;5049590;28;20064;-72
2022/08/27 02:38:16;;;;;;;7.07;2.03;;;;;;;14.59;100.00;101748.41;5041056;28;20021;-72
2022/08/27 02:40:41;;;;;;;7.68;2.65;;;;;;;14.58;100.00;101733.38;5042784;28;20086;-73
2022/08/27 02:43:07;;;;;;;6.10;2.22;;;;;;;14.56;100.00;101735.13;5048044;28;20087;-72
2022/08/27 02:45:33;;;;;;;10.30;2.67;;;;;;;14.53;100.00;101735.06;5042405;28;20389;-71
2022/08/27 02:47:59;;;;;;;4.10;2.10;;;;;;;14.53;100.00;101741.28;5039677;28;20050;-72
2022/08/27 02:50:25;;;;;;;5.15;2.10;;;;;;;14.52;100.00;101741.25;5051486;28;20107;-73
2022/08/27 02:52:50;;;;;;;7.68;2.17;;;;;;;14.48;100.00;101730.59;5046347;28;20151;-73
2022/08/27 02:55:16;;;;;;;4.38;2.10;;;;;;;14.45;100.00;101725.25;5042122;28;20059;-72
2022/08/27 02:57:41;;;;;;;3.97;2.03;;;;;;;14.43;100.00;101724.38;5043828;28;20104;-72
2022/08/27 03:00:10;;;;;;;7.05;2.40;;;;;;;14.46;100.00;101734.09;5036781;28;20064;-72
2022/08/27 03:02:36;;;;;;;9.07;1.95;;;;;;;14.44;100.00;101720.81;5049688;28;20507;-72
2022/08/27 03:05:01;;;;;;;8.27;2.70;;;;;;;14.48;100.00;101722.66;5043969;28;20029;-73
2022/08/27 03:07:27;;;;;;;8.40;2.47;;;;;;;14.46;100.00;101723.50;5039179;28;20060;-73
2022/08/27 03:09:52;;;;;;;6.78;2.15;;;;;;;14.42;100.00;101719.94;5037963;28;20028;-73
2022/08/27 03:12:18;;;;;;;9.38;2.55;;;;;;;14.42;100.00;101722.59;5060145;28;20028;-73
2022/08/27 03:14:44;;;;;;;7.18;2.47;;;;;;;14.42;100.00;101722.59;5047715;28;20100;-70
2022/08/27 03:19:54;;;;;;;8.02;2.72;;;;;;;14.38;100.00;101725.13;5033562;28;20116;-72
2022/08/27 03:22:19;;;;;;;4.40;2.15;;;;;;;14.35;100.00;101725.97;5037755;28;20104;-73
2022/08/27 03:24:45;;;;;;;3.17;2.10;;;;;;;14.34;100.00;101724.22;5054441;28;20033;-72
2022/08/27 03:27:11;;;;;;;10.55;2.20;;;;;;;14.34;100.00;101730.41;5062615;28;20026;-73
2022/08/27 03:29:36;;;;;;;5.22;2.47;;;;;;;14.33;100.00;101725.09;5051942;28;20469;-72
2022/08/27 03:32:05;;;;;;;5.50;2.15;;;;;;;14.32;100.00;101720.66;5044425;28;20108;-72
2022/08/27 03:34:31;;;;;;;4.25;1.90;;;;;;;14.32;100.00;101723.28;5036733;28;20029;-72
2022/08/27 03:36:59;;;;;;;5.45;2.30;;;;;;;14.27;100.00;101723.25;5036706;28;20018;-72
2022/08/27 03:39:24;;;;;;;4.90;2.22;;;;;;;14.27;100.00;101722.31;5036776;28;20033;-73
2022/08/27 03:41:50;;;;;;;6.45;2.38;;;;;;;14.25;100.00;101721.44;5036518;28;20026;-73
2022/08/27 03:44:15;;;;;;;6.10;2.63;;;;;;;14.23;100.00;101715.22;5037182;28;20436;-72
2022/08/27 03:46:40;;;;;;;6.32;2.15;;;;;;;14.23;100.00;101720.50;5038751;28;20027;-72
2022/08/27 03:49:05;;;;;;;9.45;2.50;;;;;;;14.27;100.00;101714.38;5039850;28;20041;-73
2022/08/27 03:51:31;;;;;;;6.15;2.40;;;;;;;14.24;100.00;101717.00;5045053;28;20079;-73
2022/08/27 03:53:56;;;;;;;5.55;2.50;;;;;;;14.27;100.00;101717.94;5036712;28;20032;-72
2022/08/27 03:56:22;;;;;;;6.15;2.60;;;;;;;14.27;100.00;101715.28;5045638;28;20477;-72
2022/08/27 03:58:47;;;;;;;4.75;2.38;;;;;;;14.27;100.00;101719.69;5054865;28;20184;-72
2022/08/27 04:01:13;;;;;;;4.38;2.55;;;;;;;14.25;100.00;101724.06;5040851;28;20096;-72
2022/08/27 04:03:38;;;;;;;4.10;2.22;;;;;;;14.25;100.00;101717.00;5036176;28;20037;-72
2022/08/27 04:06:04;;;;;;;12.82;2.38;;;;;;;14.26;100.00;101716.16;5040033;28;20025;-72
2022/08/27 04:08:29;;;;;;;6.30;2.40;;;;;;;14.25;100.00;101718.78;5035425;28;20041;-72
2022/08/27 04:10:55;;;;;;;6.00;2.05;;;;;;;14.25;100.00;101717.00;5046823;28;20033;-72
2022/08/27 04:13:22;;;;;;;4.85;2.22;;;;;;;14.24;100.00;101719.66;5055099;28;20025;-72
2022/08/27 04:15:49;;;;;;;5.90;2.38;;;;;;;14.24;100.00;101709.06;5055897;28;20044;-72
2022/08/27 04:18:15;;;;;;;4.30;2.13;;;;;;;14.24;100.00;101717.00;5050491;28;20484;-72
2022/08/27 04:20:42;;;;;;;5.25;2.53;;;;;;;14.23;100.00;101709.91;5035801;28;20109;-72
2022/08/27 04:23:08;;;;;;;5.88;2.80;;;;;;;14.21;100.00;101716.97;5035942;28;20365;-72
2022/08/27 04:25:33;;;;;;;8.02;2.65;;;;;;;14.21;100.00;101716.97;5047053;28;20035;-72
2022/08/27 04:27:59;;;;;;;7.97;3.00;;;;;;;14.22;100.00;101714.31;5055876;28;20029;-71
2022/08/27 04:30:24;;;;;;;6.60;2.78;;;;;;;14.20;100.00;101715.16;5055582;28;20021;-72
2022/08/27 04:32:50;;;;;;;5.20;2.40;;;;;;;14.22;100.00;101719.63;5047661;28;20030;-73
2022/08/27 04:35:15;;;;;;;9.23;2.85;;;;;;;14.19;100.00;101718.69;5056559;28;20037;-73
2022/08/27 04:37:41;;;;;;;7.05;2.83;;;;;;;14.18;100.00;101723.09;5047163;28;20029;-72
2022/08/27 04:40:07;;;;;;;6.55;2.65;;;;;;;14.14;100.00;101724.78;5048588;28;20029;-73
2022/08/27 04:42:32;;;;;;;5.18;2.92;;;;;;;14.13;100.00;101720.38;5039119;28;20041;-73
2022/08/27 04:44:57;;;;;;;5.28;2.40;;;;;;;14.13;100.00;101724.75;5049352;28;20021;-72
2022/08/27 04:47:23;;;;;;;3.50;2.25;;;;;;;14.12;100.00;101733.56;5053661;28;20079;-71
2022/08/27 04:49:48;;;;;;;6.20;2.33;;;;;;;14.11;100.00;101731.81;5047548;28;20024;-71
2022/08/27 04:52:14;;;;;;;4.15;2.47;;;;;;;14.11;100.00;101732.69;5037722;28;20029;-71
2022/08/27 04:54:40;;;;;;;9.10;2.70;;;;;;;14.10;100.00;101730.91;5038003;28;20100;-72
2022/08/27 04:57:06;;;;;;;9.77;2.70;;;;;;;14.12;100.00;101729.19;5038778;28;20401;-72
2022/08/27 04:59:33;;;;;;;5.22;2.20;;;;;;;14.15;100.00;101734.50;5039081;28;20040;-72
2022/08/27 05:02:00;;;;;;;6.47;3.00;;;;;;;14.19;100.00;101731.91;5046257;28;20538;-72
2022/08/27 05:04:25;;;;;;;6.72;2.53;;;;;;;14.26;100.00;101734.69;5048811;28;20044;-72
2022/08/27 05:06:51;;;;;;;9.50;2.70;;;;;;;14.34;100.00;101740.09;5036584;28;20026;-71
2022/08/27 05:09:17;;;;;;;4.88;3.53;;;;;;;14.42;100.00;101746.41;5042878;28;20053;-73
2022/08/27 05:11:43;;;;;;;6.35;3.28;;;;;;;14.48;100.00;101742.97;5042219;28;20033;-72
2022/08/27 05:14:11;;;;;;;6.55;2.67;;;;;;;14.56;100.00;101751.03;5049794;28;20025;-72
2022/08/27 05:16:37;;;;;;;6.40;3.30;;;;;;;14.65;100.00;101748.56;5049238;28;20043;-73
2022/08/27 05:19:07;;;;;;;4.47;2.92;;;;;;;14.71;100.00;101751.28;5045788;28;20028;-72
2022/08/27 05:21:34;;;;;;;7.57;3.47;;;;;;;14.78;100.00;101747.81;5045589;28;20086;-72
2022/08/27 05:24:02;;;;;;;7.47;3.20;;;;;;;14.83;100.00;101746.13;5044467;28;20101;-72
2022/08/27 05:26:28;;;;;;;8.35;2.92;;;;;;;14.91;100.00;101753.31;5064870;28;20473;-72
2022/08/27 05:28:54;;;;;;;5.20;2.80;;;;;;;15.00;100.00;101753.41;5038894;28;20022;-72
2022/08/27 05:31:20;;;;;;;7.45;2.75;;;;;;;15.04;100.00;101755.22;5034083;28;20083;-72
2022/08/27 05:33:47;;;;;;;3.65;2.50;;;;;;;15.10;100.00;101754.44;5041421;28;20053;-71
2022/08/27 05:36:19;;;;;;;5.80;3.13;;;;;;;15.13;100.00;101755.34;5038831;28;20056;-72
2022/08/27 05:38:45;;;;;;;5.50;2.70;;;;;;;15.19;100.00;101757.19;5044448;28;20021;-71
2022/08/27 05:41:17;;;;;;;6.68;2.78;;;;;;;15.23;100.00;101759.00;5039465;28;20029;-72
2022/08/27 05:43:44;;;;;;;6.18;3.08;;;;;;;15.30;100.00;101762.63;5041666;28;20473;-72
2022/08/27 05:46:14;;;;;;;7.32;2.53;;;;;;;15.33;100.00;101758.25;5051928;28;20056;-72
2022/08/27 05:48:40;;;;;;;5.50;2.47;;;;;;;15.45;100.00;101757.50;5045047;28;20026;-73
2022/08/27 05:51:12;;;;;;;6.97;2.70;;;;;;;15.48;100.00;101757.53;5051503;28;20040;-72
2022/08/27 05:53:38;;;;;;;7.28;2.95;;;;;;;15.54;100.00;101758.47;5045309;28;20030;-72
2022/08/27 05:56:04;;;;;;;6.25;2.63;;;;;;;15.59;100.00;101759.41;5047276;28;20039;-72
2022/08/27 06:01:16;;;;;;;6.75;2.47;;;;;;;15.71;100.00;101753.31;5040237;28;20035;-71
2022/08/27 06:03:45;;;;;;;10.90;3.05;;;;;;;15.77;100.00;101753.41;5037740;28;20032;-71
2022/08/27 06:06:10;;;;;;;7.57;2.65;;;;;;;15.82;100.00;101752.59;5051341;28;20025;-72
2022/08/27 06:08:36;;;;;;;5.00;2.30;;;;;;;15.90;100.00;101752.69;5046953;28;20102;-72
2022/08/27 06:11:04;;;;;;;10.57;2.85;;;;;;;15.96;100.00;101751.84;5045824;28;20440;-72
2022/08/27 06:13:30;;;;;;;9.32;2.97;;;;;;;16.06;100.00;101750.16;5046419;28;20112;-71
2022/08/27 06:16:16;;;;;;;6.05;3.33;;;;;;;16.14;100.00;101745.78;5034691;28;20048;-70
2022/08/27 06:18:44;;;;;;;6.45;2.38;;;;;;;16.24;100.00;101752.97;5051384;28;20021;-68
2022/08/27 06:21:11;;;;;;;7.10;2.53;;;;;;;16.38;100.00;101752.19;5040963;28;20036;-69
2022/08/27 06:23:37;;;;;;;8.20;2.58;;;;;;;16.45;100.00;101749.56;5042776;28;20021;-69
2022/08/27 06:26:11;;;;;;;4.28;2.20;;;;;;;16.54;100.00;101747.88;5062916;28;20537;-72
2022/08/27 06:28:40;;;;;;;8.23;3.00;;;;;;;16.66;100.00;101739.97;5041054;28;20073;-73
2022/08/27 06:31:11;;;;;;;9.10;3.05;;;;;;;16.79;100.00;101747.13;5037802;28;20160;-72
2022/08/27 06:33:37;;;;;;;7.25;2.75;;;;;;;16.88;100.00;101748.94;5051322;28;20071;-73
2022/08/27 06:36:05;;;;;;;6.72;2.90;;;;;;;16.96;100.00;101755.19;5046855;28;20048;-73
2022/08/27 06:38:32;;;;;;;7.30;2.78;;;;;;;17.03;100.00;101753.47;5040344;28;20026;-73
2022/08/27 06:40:58;;;;;;;5.00;2.40;;;;;;;17.09;100.00;101753.50;5040654;28;20021;-73
2022/08/27 06:43:24;;;;;;;11.50;3.20;;;;;;;17.17;100.00;101750.84;5053372;28;20078;-73
2022/08/27 06:45:50;;;;;;;6.35;3.50;;;;;;;17.22;100.00;101758.88;5043316;28;20029;-73
2022/08/27 06:48:16;;;;;;;6.85;3.35;;;;;;;17.25;100.00;101761.53;5046025;28;20100;-72
2022/08/27 06:50:42;;;;;;;7.82;3.78;;;;;;;17.31;100.00;101750.91;5044775;28;20049;-73
2022/08/27 06:53:08;;;;;;;9.32;2.90;;;;;;;17.34;100.00;101756.25;5033347;28;20083;-73
2022/08/27 06:55:42;;;;;;;10.68;4.00;;;;;;;17.38;100.00;101750.03;5048919;28;20032;-73
2022/08/27 06:58:07;;;;;;;6.57;3.17;;;;;;;17.39;100.00;101751.84;5033618;28;20017;-72
2022/08/27 07:00:33;;;;;;;7.78;3.58;;;;;;;17.42;100.00;101743.84;5046839;28;20031;-72
2022/08/27 07:03:00;;;;;;;9.45;3.10;;;;;;;17.44;100.00;101755.38;5049596;28;20025;-72
2022/08/27 07:05:26;;;;;;;6.35;3.08;;;;;;;17.48;100.00;101756.28;5045174;28;20041;-72
2022/08/27 07:07:52;;;;;;;6.45;2.80;;;;;;;17.51;100.00;101756.28;5043830;28;20045;-72
2022/08/27 07:10:17;;;;;;;4.63;2.50;;;;;;;17.52;100.00;101753.63;5050564;28;20052;-71
2022/08/27 07:12:42;;;;;;;6.50;2.90;;;;;;;17.55;100.00;101760.72;5037807;28;20021;-71
2022/08/27 07:15:08;;;;;;;10.15;2.80;;;;;;;17.62;100.00;101753.63;5039637;28;20025;-71
2022/08/27 07:17:33;;;;;;;4.78;2.40;;;;;;;17.66;100.00;101760.75;5041370;28;20521;-71
2022/08/27 07:19:59;;;;;;;4.13;2.58;;;;;;;17.69;100.00;101758.09;5044260;28;20025;-71
2022/08/27 07:22:24;;;;;;;6.68;2.95;;;;;;;17.76;100.00;101761.66;5038873;28;20396;-72
2022/08/27 07:24:51;;;;;;;6.32;2.45;;;;;;;17.83;100.00;101759.00;5043448;28;20017;-73
2022/08/27 07:27:17;;;;;;;6.03;2.60;;;;;;;17.90;100.00;101765.22;5048061;28;20033;-74
2022/08/27 07:29:42;;;;;;;6.47;2.92;;;;;;;17.95;100.00;101763.47;5052002;28;20025;-74
2022/08/27 07:32:08;;;;;;;5.05;2.70;;;;;;;18.02;100.00;101769.72;5053857;28;20047;-73
2022/08/27 07:34:33;;;;;;;8.80;2.70;;;;;;;18.08;100.00;101758.16;5039354;28;20527;-72
2022/08/27 07:36:58;;;;;;;4.78;2.33;;;;;;;18.15;100.00;101768.81;5048024;28;20496;-73
2022/08/27 07:39:24;;;;;;;2.85;2.15;;;;;;;18.20;100.00;101774.13;5055358;28;20028;-74
2022/08/27 07:44:33;;;;;;;7.22;2.25;;;;;;;18.39;100.00;101780.34;5053880;28;20044;-74
2022/08/27 07:46:58;;;;;;;5.70;2.40;;;;;;;18.46;100.00;101781.22;5044013;28;20030;-74
2022/08/27 07:49:27;;;;;;;6.88;2.38;;;;;;;18.47;100.00;101778.56;5035932;28;20056;-74
2022/08/27 07:51:52;;;;;;;6.47;2.40;;;;;;;18.55;100.00;101778.56;5035081;28;20555;-72
2022/08/27 07:54:21;;;;;;;4.20;2.38;;;;;;;18.61;100.00;101781.22;5043320;28;20060;-72
2022/08/27 07:56:47;;;;;;;3.45;2.33;;;;;;;18.68;100.00;101787.44;5048241;28;20075;-73
2022/08/27 07:59:12;;;;;;;5.15;2.10;;;;;;;18.76;100.00;101784.72;5045302;28;20024;-72
2022/08/27 08:01:40;;;;;;;4.88;2.30;;;;;;;18.79;100.00;101774.94;5045594;28;20037;-73
2022/08/27 08:04:06;;;;;;;3.58;1.77;;;;;;;18.85;100.00;101782.91;5035848;28;20117;-73
2022/08/27 08:06:36;;;;;;;12.70;2.05;;;;;;;18.90;100.00;101787.41;5037285;28;20104;-73
2022/08/27 08:09:02;;;;;;;4.15;1.50;;;;;;;18.95;100.00;101801.59;5038635;28;20536;-73
2022/08/27 08:11:28;;;;;;;4.90;1.38;;;;;;;19.06;100.00;101794.47;5044142;28;20109;-75
2022/08/27 08:13:53;;;;;;;5.50;1.50;;;;;;;19.23;100.00;101797.06;5041548;28;20047;-75
2022/08/27 08:16:19;;;;;;;2.00;1.08;;;;;;;19.32;100.00;101806.81;5039667;28;20029;-74
2022/08/27 08:18:45;;;;;;;3.00;1.40;;;;;;;19.47;100.00;101800.53;5050355;28;20024;-73
2022/08/27 08:21:13;;;;;;;4.72;1.70;;;;;;;19.52;100.00;101798.69;5052118;28;20028;-75
2022/08/27 08:23:40;;;;;;;2.78;1.38;;;;;;;19.60;100.00;101796.00;5055439;28;20029;-74
2022/08/27 08:26:05;;;;;;;4.45;1.60;;;;;;;19.66;100.00;101812.00;5054041;28;20534;-75
2022/08/27 08:28:31;;;;;;;7.45;1.40;;;;;;;19.68;100.00;101812.84;5048550;28;20025;-74
2022/08/27 08:30:57;;;;;;;5.47;1.27;;;;;;;19.69;100.00;101804.81;5047378;28;20025;-75
2022/08/27 08:33:23;;;;;;;6.85;1.75;;;;;;;19.76;100.00;101807.47;5040434;28;20093;-75
2022/08/27 08:35:48;;;;;;;5.72;1.38;;;;;;;19.81;100.00;101811.03;5054785;28;20469;-74
2022/08/27 08:38:15;;;;;;;5.78;1.50;;;;;;;19.87;100.00;101808.31;5054763;28;20103;-75
2022/08/27 08:40:45;;;;;;;4.22;1.00;;;;;;;19.93;100.00;101808.28;5041491;28;20783;-74
2022/08/27 08:43:31;;;;;;;5.82;1.20;;;;;;;20.00;100.00;101811.81;5037553;28;20470;-74
2022/08/27 08:46:07;;;;;;;3.08;1.20;;;;;;;20.18;100.00;101817.03;5045616;28;20037;-75
2022/08/27 08:48:34;;;;;;;4.93;1.30;;;;;;;20.21;100.00;101814.31;5037584;28;20078;-74
2022/08/27 08:51:06;;;;;;;3.60;1.25;;;;;;;20.30;100.00;101809.78;5050634;28;20024;-74
2022/08/27 08:53:56;;;;;;;4.15;1.23;;;;;;;20.44;100.00;101817.69;5048471;28;20097;-74
2022/08/27 08:56:27;;;;;;;4.75;1.33;;;;;;;20.64;98.93;101820.16;5040195;28;20028;-74
2022/08/27 08:59:13;;;;;;;3.45;1.20;;;;;;;20.70;97.70;101820.13;5049004;28;20029;-75
2022/08/27 09:01:39;;;;;;;4.35;1.00;;;;;;;20.83;97.71;101819.09;5042007;28;20518;-75
2022/08/27 09:04:09;;;;;;;7.90;1.23;;;;;;;20.90;94.58;101827.94;5056367;28;20056;-75
2022/08/27 09:06:46;;;;;;;3.08;0.98;;;;;;;20.78;94.97;101823.63;5060660;28;20032;-76
2022/08/27 09:09:33;;;;;;;3.25;1.08;;;;;;;20.76;94.97;101820.06;5043028;28;20040;-77
2022/08/27 09:12:10;;;;;;;3.78;1.10;;;;;;;20.71;97.52;101827.25;5051070;28;20021;-74
2022/08/27 09:15:12;;;;;;;9.52;1.52;;;;;;;20.61;96.75;101825.56;5044453;28;20029;-75
2022/08/27 09:17:39;;;;;;;4.57;1.20;;;;;;;20.44;97.38;101831.91;5040019;28;20025;-76
2022/08/27 09:20:06;;;;;;;4.88;1.25;;;;;;;20.42;99.69;101836.41;5041097;28;20082;-76
2022/08/27 09:22:53;;;;;;;4.20;1.05;;;;;;;20.21;100.00;101832.13;5035703;28;20035;-76
2022/08/27 09:25:25;;;;;;;5.57;1.42;;;;;;;20.23;99.90;101835.69;5048322;28;20479;-77
2022/08/27 09:27:53;;;;;;;4.32;1.40;;;;;;;20.25;100.00;101838.34;5037248;28;20025;-77
2022/08/27 09:30:24;;;;;;;3.17;1.10;;;;;;;20.21;100.00;101838.38;5049574;28;20025;-76
2022/08/27 09:33:03;;;;;;;5.50;1.30;;;;;;;20.24;99.91;101840.13;5035788;28;20031;-75
2022/08/27 09:35:38;;;;;;;5.78;1.17;;;;;;;20.27;99.93;101841.91;5056275;28;20029;-76
2022/08/27 09:38:03;;;;;;;3.58;1.10;;;;;;;20.31;100.00;101838.28;5049586;28;20033;-75
2022/08/27 09:40:32;;;;;;;5.60;1.23;;;;;;;20.25;98.31;101843.69;5059971;28;20472;-73
2022/08/27 09:43:07;;;;;;;6.32;1.20;;;;;;;20.31;100.00;101843.66;5047822;28;20024;-73
2022/08/27 09:45:33;;;;;;;5.80;2.08;;;;;;;20.36;100.00;101832.00;5071619;28;20025;-74
2022/08/27 09:48:17;;;;;;;3.72;1.05;;;;;;;20.42;100.00;101844.44;5054532;28;20381;-73
2022/08/27 09:50:55;;;;;;;7.70;1.48;;;;;;;20.51;95.56;101830.09;5046634;28;20021;-72
2022/08/27 09:53:43;;;;;;;7.35;1.20;;;;;;;20.68;100.00;101827.25;5044887;28;20028;-73
2022/08/27 09:56:20;;;;;;;3.55;1.10;;;;;;;20.80;98.37;101832.53;5049780;28;20036;-73
2022/08/27 09:58:49;;;;;;;4.53;1.05;;;;;;;20.80;95.02;101829.84;5033967;28;20064;-73
2022/08/27 10:01:22;;;;;;;3.53;1.00;;;;;;;20.89;95.34;101827.06;5052614;28;20093;-74
2022/08/27 10:03:48;;;;;;;3.83;1.00;;;;;;;20.91;94.77;101823.50;5048827;28;20044;-74
2022/08/27 10:06:25;;;;;;;2.35;1.13;;;;;;;20.90;94.53;101827.94;5044865;28;20029;-74
2022/08/27 10:08:53;;;;;;;4.63;1.40;;;;;;;20.85;95.93;101833.38;5052374;28;20036;-74
2022/08/27 10:11:32;;;;;;;1.85;1.02;;;;;;;20.86;93.35;101827.13;5064077;28;20031;-74
2022/08/27 10:14:01;;;;;;;6.80;1.45;;;;;;;20.84;95.65;101833.38;5054885;28;20029;-73
2022/08/27 10:16:32;;;;;;;4.13;1.10;;;;;;;20.83;95.47;101831.59;5061157;28;20110;-73
2022/08/27 10:19:16;;;;;;;6.63;1.33;;;;;;;20.88;96.46;101819.06;5053029;28;20104;-72
2022/08/27 10:21:53;;;;;;;6.78;1.67;;;;;;;20.91;95.00;101827.06;5044405;28;20025;-73
2022/08/27 10:24:28;;;;;;;3.03;1.00;;;;;;;20.93;93.61;101824.34;5045817;28;20489;-72
2022/08/27 10:27:06;;;;;;;4.72;1.05;;;;;;;20.99;91.51;101816.28;5035674;28;20021;-74
2022/08/27 10:30:01;;;;;;;5.57;1.10;;;;;;;21.02;91.58;101822.47;5060014;28;20419;-73
2022/08/27 10:32:27;;;;;;;2.28;0.90;;;;;;;21.13;91.05;101819.66;5062174;28;20071;-73
2022/08/27 10:35:12;;;;;;;4.18;1.13;;;;;;;21.30;91.68;101815.91;5049416;28;20433;-72
2022/08/27 10:38:01;;;;;;;4.65;1.27;;;;;;;21.46;90.72;101817.50;5061939;28;20028;-73
2022/08/27 10:40:46;;;;;;;4.90;1.08;;;;;;;21.53;88.68;101815.66;5045480;28;20044;-74
2022/08/27 10:43:30;;;;;;;1.80;0.80;;;;;;;21.57;88.66;101820.06;5052241;28;20052;-73
2022/08/27 10:46:43;;;;;;;4.55;0.90;;;;;;;21.67;89.33;101820.81;5045465;28;20523;-73
2022/08/27 10:49:19;;;;;;;5.88;1.27;;;;;;;21.70;85.00;101826.09;5041217;28;20035;-72
2022/08/27 10:52:17;;;;;;;3.58;1.10;;;;;;;21.88;86.06;101816.91;5048706;28;20095;-74
2022/08/27 10:55:10;;;;;;;3.35;1.20;;;;;;;22.03;86.34;101819.38;5047189;28;20052;-71
2022/08/27 10:57:59;;;;;;;4.90;1.10;;;;;;;21.92;84.68;101820.44;5044205;28;20029;-73
2022/08/27 11:00:57;;;;;;;4.18;1.17;;;;;;;22.19;85.11;101821.78;5041867;28;20124;-73
2022/08/27 11:03:30;;;;;;;9.02;1.67;;;;;;;22.22;87.67;101814.59;5023755;28;20388;-74
2022/08/27 11:05:58;;;;;;;;;;;;;;;22.02;84.40;101819.41;5046539;28;20119;-75
2022/08/27 11:08:48;;;;;;;4.00;1.02;;;;;;;22.21;87.91;101812.81;5044872;28;19924;-74
2022/08/27 11:11:27;;;;;;;7.03;1.38;;;;;;;22.30;84.81;101806.44;5047850;28;20051;-73
2022/08/27 11:13:57;;;;;;;6.60;1.58;;;;;;;22.15;83.65;101818.28;5045126;28;20017;-72
2022/08/27 11:16:35;;;;;;;6.10;1.48;;;;;;;22.03;84.25;101814.00;5048423;28;20083;-71
2022/08/27 11:19:30;;;;;;;6.28;1.30;;;;;;;22.09;88.34;101821.06;5049529;28;20017;-73
2022/08/27 11:22:05;;;;;;;3.00;0.90;;;;;;;22.10;84.59;101820.16;5049101;28;20049;-72
2022/08/27 11:24:43;;;;;;;2.55;0.90;;;;;;;21.92;86.54;101817.75;5054208;28;20032;-74
2022/08/27 11:27:09;;;;;;;7.32;1.25;;;;;;;21.74;85.29;101811.75;5043142;28;20036;-73
2022/08/27 11:29:48;;;;;;;2.63;0.93;;;;;;;21.65;86.79;101817.25;5048119;28;20029;-72
2022/08/27 11:32:19;;;;;;;3.55;1.10;;;;;;;21.60;89.75;101813.78;5042736;28;20036;-73
2022/08/27 11:34:52;;;;;;;5.38;1.48;;;;;;;21.48;90.39;101810.31;5036546;28;20033;-72
2022/08/27 11:38:05;;;;;;;4.38;1.40;;;;;;;21.39;89.67;101810.41;5043273;28;20429;-74